sensor_id;sensor_type;location;lat;lon;timestamp;P1;durP1;ratioP1;P2;durP2;ratioP2
2001;SDS011;1003;48.002;7.788;2023-06-26T00:01:39;5.60;;;4.40;;
2001;SDS011;1003;48.002;7.788;2023-06-26T00:04:06;6.60;;;4.73;;
2001;SDS011;1003;48.002;7.788;2023-06-26T00:06:33;5.17;;;4.60;;
2001;SDS011;1003;48.002;7.788;2023-06-26T00:09:02;5.60;;;4.57;;
2001;SDS011;1003;48.002;7.788;2023-06-26T00:11:29;6.30;;;4.73;;
2001;SDS011;1003;48.002;7.788;2023-06-26T00:13:58;5.50;;;4.57;;
2001;SDS011;1003;48.002;7.788;2023-06-26T00:16:26;6.30;;;4.80;;
2001;SDS011;1003;48.002;7.788;2023-06-26T00:18:53;6.03;;;5.00;;
2001;SDS011;1003;48.002;7.788;2023-06-26T00:21:20;5.23;;;4.57;;
2001;SDS011;1003;48.002;7.788;2023-06-26T00:23:48;6.70;;;4.90;;
2001;SDS011;1003;48.002;7.788;2023-06-26T00:26:17;6.60;;;4.97;;
2001;SDS011;1003;48.002;7.788;2023-06-26T00:28:44;6.00;;;4.67;;
2001;SDS011;1003;48.002;7.788;2023-06-26T00:31:11;5.73;;;4.57;;
2001;SDS011;1003;48.002;7.788;2023-06-26T00:33:38;7.37;;;4.53;;
2001;SDS011;1003;48.002;7.788;2023-06-26T00:36:05;6.07;;;4.80;;
2001;SDS011;1003;48.002;7.788;2023-06-26T00:38:32;6.23;;;4.87;;
2001;SDS011;1003;48.002;7.788;2023-06-26T00:40:59;7.23;;;4.90;;
2001;SDS011;1003;48.002;7.788;2023-06-26T00:43:27;6.40;;;4.60;;
2001;SDS011;1003;48.002;7.788;2023-06-26T00:45:54;5.43;;;4.67;;
2001;SDS011;1003;48.002;7.788;2023-06-26T00:48:22;5.90;;;4.80;;
2001;SDS011;1003;48.002;7.788;2023-06-26T00:50:49;5.87;;;4.47;;
2001;SDS011;1003;48.002;7.788;2023-06-26T00:53:16;6.03;;;4.73;;
2001;SDS011;1003;48.002;7.788;2023-06-26T00:55:44;6.07;;;4.83;;
2001;SDS011;1003;48.002;7.788;2023-06-26T00:58:12;6.20;;;4.70;;
2001;SDS011;1003;48.002;7.788;2023-06-26T01:00:40;5.50;;;4.40;;
2001;SDS011;1003;48.002;7.788;2023-06-26T01:03:10;6.83;;;4.70;;
2001;SDS011;1003;48.002;7.788;2023-06-26T01:05:38;5.83;;;4.83;;
2001;SDS011;1003;48.002;7.788;2023-06-26T01:08:05;5.30;;;4.60;;
2001;SDS011;1003;48.002;7.788;2023-06-26T01:10:33;4.93;;;4.33;;
2001;SDS011;1003;48.002;7.788;2023-06-26T01:13:00;5.50;;;4.60;;
2001;SDS011;1003;48.002;7.788;2023-06-26T01:15:28;6.20;;;4.57;;
2001;SDS011;1003;48.002;7.788;2023-06-26T01:17:56;5.90;;;4.73;;
2001;SDS011;1003;48.002;7.788;2023-06-26T01:20:28;6.17;;;4.60;;
2001;SDS011;1003;48.002;7.788;2023-06-26T01:22:58;5.93;;;4.73;;
2001;SDS011;1003;48.002;7.788;2023-06-26T01:25:35;5.60;;;4.63;;
2001;SDS011;1003;48.002;7.788;2023-06-26T01:28:16;5.50;;;4.60;;
2001;SDS011;1003;48.002;7.788;2023-06-26T01:30:46;5.93;;;4.60;;
2001;SDS011;1003;48.002;7.788;2023-06-26T01:33:15;5.90;;;4.90;;
2001;SDS011;1003;48.002;7.788;2023-06-26T01:35:43;6.13;;;4.80;;
2001;SDS011;1003;48.002;7.788;2023-06-26T01:38:12;6.07;;;4.67;;
2001;SDS011;1003;48.002;7.788;2023-06-26T01:40:41;5.63;;;4.43;;
2001;SDS011;1003;48.002;7.788;2023-06-26T01:43:10;6.53;;;4.90;;
2001;SDS011;1003;48.002;7.788;2023-06-26T01:45:51;5.43;;;4.27;;
2001;SDS011;1003;48.002;7.788;2023-06-26T01:48:23;6.60;;;4.80;;
2001;SDS011;1003;48.002;7.788;2023-06-26T01:50:56;5.30;;;4.23;;
2001;SDS011;1003;48.002;7.788;2023-06-26T01:53:26;6.30;;;4.80;;
2001;SDS011;1003;48.002;7.788;2023-06-26T01:56:04;6.00;;;4.63;;
2001;SDS011;1003;48.002;7.788;2023-06-26T01:58:40;6.00;;;4.50;;
2001;SDS011;1003;48.002;7.788;2023-06-26T02:01:11;6.47;;;4.70;;
2001;SDS011;1003;48.002;7.788;2023-06-26T02:03:38;5.13;;;4.47;;
2001;SDS011;1003;48.002;7.788;2023-06-26T02:06:05;6.47;;;4.77;;
2001;SDS011;1003;48.002;7.788;2023-06-26T02:08:32;5.67;;;4.43;;
2001;SDS011;1003;48.002;7.788;2023-06-26T02:10:59;6.17;;;4.60;;
2001;SDS011;1003;48.002;7.788;2023-06-26T02:13:26;6.93;;;4.50;;
2001;SDS011;1003;48.002;7.788;2023-06-26T02:15:55;5.63;;;4.33;;
2001;SDS011;1003;48.002;7.788;2023-06-26T02:18:22;6.03;;;4.80;;
2001;SDS011;1003;48.002;7.788;2023-06-26T02:20:49;5.80;;;4.77;;
2001;SDS011;1003;48.002;7.788;2023-06-26T02:23:16;6.60;;;5.00;;
2001;SDS011;1003;48.002;7.788;2023-06-26T02:25:43;6.03;;;4.87;;
2001;SDS011;1003;48.002;7.788;2023-06-26T02:28:10;7.23;;;4.87;;
2001;SDS011;1003;48.002;7.788;2023-06-26T02:30:37;7.60;;;4.43;;
2001;SDS011;1003;48.002;7.788;2023-06-26T02:33:06;6.80;;;4.40;;
2001;SDS011;1003;48.002;7.788;2023-06-26T02:35:33;7.50;;;4.87;;
2001;SDS011;1003;48.002;7.788;2023-06-26T02:38:00;7.43;;;4.90;;
2001;SDS011;1003;48.002;7.788;2023-06-26T02:40:27;7.30;;;4.63;;
2001;SDS011;1003;48.002;7.788;2023-06-26T02:42:54;5.73;;;4.43;;
2001;SDS011;1003;48.002;7.788;2023-06-26T02:45:21;6.80;;;4.70;;
2001;SDS011;1003;48.002;7.788;2023-06-26T02:47:48;5.83;;;4.43;;
2001;SDS011;1003;48.002;7.788;2023-06-26T02:50:17;5.63;;;4.43;;
2001;SDS011;1003;48.002;7.788;2023-06-26T02:52:44;5.70;;;4.40;;
2001;SDS011;1003;48.002;7.788;2023-06-26T02:55:13;6.87;;;4.93;;
2001;SDS011;1003;48.002;7.788;2023-06-26T02:57:40;6.27;;;4.73;;
2001;SDS011;1003;48.002;7.788;2023-06-26T03:00:07;5.23;;;4.13;;
2001;SDS011;1003;48.002;7.788;2023-06-26T03:02:36;7.30;;;5.00;;
2001;SDS011;1003;48.002;7.788;2023-06-26T03:05:03;5.77;;;4.67;;
2001;SDS011;1003;48.002;7.788;2023-06-26T03:07:33;6.20;;;4.40;;
2001;SDS011;1003;48.002;7.788;2023-06-26T03:10:00;6.50;;;4.63;;
2001;SDS011;1003;48.002;7.788;2023-06-26T03:12:27;8.10;;;5.13;;
2001;SDS011;1003;48.002;7.788;2023-06-26T03:14:54;5.00;;;4.20;;
2001;SDS011;1003;48.002;7.788;2023-06-26T03:17:21;5.77;;;4.63;;
2001;SDS011;1003;48.002;7.788;2023-06-26T03:19:48;5.23;;;4.50;;
2001;SDS011;1003;48.002;7.788;2023-06-26T03:22:15;5.80;;;4.37;;
2001;SDS011;1003;48.002;7.788;2023-06-26T03:24:44;5.57;;;4.70;;
2001;SDS011;1003;48.002;7.788;2023-06-26T03:27:11;5.83;;;4.70;;
2001;SDS011;1003;48.002;7.788;2023-06-26T03:29:38;5.90;;;4.67;;
2001;SDS011;1003;48.002;7.788;2023-06-26T03:32:06;5.57;;;4.70;;
2001;SDS011;1003;48.002;7.788;2023-06-26T03:34:34;6.07;;;4.77;;
2001;SDS011;1003;48.002;7.788;2023-06-26T03:37:01;6.03;;;4.73;;
2001;SDS011;1003;48.002;7.788;2023-06-26T03:39:28;5.97;;;4.73;;
2001;SDS011;1003;48.002;7.788;2023-06-26T03:41:56;5.67;;;4.50;;
2001;SDS011;1003;48.002;7.788;2023-06-26T03:44:25;5.90;;;4.77;;
2001;SDS011;1003;48.002;7.788;2023-06-26T03:46:53;7.63;;;4.70;;
2001;SDS011;1003;48.002;7.788;2023-06-26T03:49:20;5.93;;;4.70;;
2001;SDS011;1003;48.002;7.788;2023-06-26T03:51:47;6.17;;;4.80;;
2001;SDS011;1003;48.002;7.788;2023-06-26T03:54:14;5.63;;;4.37;;
2001;SDS011;1003;48.002;7.788;2023-06-26T03:56:41;7.10;;;5.03;;
2001;SDS011;1003;48.002;7.788;2023-06-26T03:59:09;6.27;;;5.07;;
2001;SDS011;1003;48.002;7.788;2023-06-26T04:01:37;7.67;;;5.03;;
2001;SDS011;1003;48.002;7.788;2023-06-26T04:04:04;5.27;;;4.43;;
2001;SDS011;1003;48.002;7.788;2023-06-26T04:06:31;6.73;;;5.00;;
2001;SDS011;1003;48.002;7.788;2023-06-26T04:08:59;6.50;;;4.80;;
2001;SDS011;1003;48.002;7.788;2023-06-26T04:11:26;7.00;;;5.10;;
2001;SDS011;1003;48.002;7.788;2023-06-26T04:13:53;6.97;;;5.30;;
2001;SDS011;1003;48.002;7.788;2023-06-26T04:16:21;7.10;;;4.90;;
2001;SDS011;1003;48.002;7.788;2023-06-26T04:18:50;6.33;;;5.00;;
2001;SDS011;1003;48.002;7.788;2023-06-26T04:21:18;5.50;;;4.73;;
2001;SDS011;1003;48.002;7.788;2023-06-26T04:23:45;6.37;;;4.80;;
2001;SDS011;1003;48.002;7.788;2023-06-26T04:26:12;6.03;;;4.47;;
2001;SDS011;1003;48.002;7.788;2023-06-26T04:28:39;6.57;;;4.97;;
2001;SDS011;1003;48.002;7.788;2023-06-26T04:31:07;6.77;;;5.00;;
2001;SDS011;1003;48.002;7.788;2023-06-26T04:33:36;5.70;;;4.80;;
2001;SDS011;1003;48.002;7.788;2023-06-26T04:36:03;5.67;;;4.80;;
2001;SDS011;1003;48.002;7.788;2023-06-26T04:38:31;5.90;;;4.50;;
2001;SDS011;1003;48.002;7.788;2023-06-26T04:41:00;6.13;;;4.90;;
2001;SDS011;1003;48.002;7.788;2023-06-26T04:43:27;6.17;;;4.33;;
2001;SDS011;1003;48.002;7.788;2023-06-26T04:45:54;5.60;;;4.67;;
2001;SDS011;1003;48.002;7.788;2023-06-26T04:48:22;6.00;;;4.60;;
2001;SDS011;1003;48.002;7.788;2023-06-26T04:50:50;5.63;;;4.90;;
2001;SDS011;1003;48.002;7.788;2023-06-26T04:53:18;5.13;;;4.50;;
2001;SDS011;1003;48.002;7.788;2023-06-26T04:55:46;5.70;;;4.80;;
2001;SDS011;1003;48.002;7.788;2023-06-26T04:58:13;6.33;;;4.83;;
2001;SDS011;1003;48.002;7.788;2023-06-26T05:00:41;7.53;;;4.80;;
2001;SDS011;1003;48.002;7.788;2023-06-26T05:03:08;6.50;;;5.00;;
2001;SDS011;1003;48.002;7.788;2023-06-26T05:05:35;7.43;;;4.60;;
2001;SDS011;1003;48.002;7.788;2023-06-26T05:08:14;5.23;;;4.73;;
2001;SDS011;1003;48.002;7.788;2023-06-26T05:10:43;5.13;;;4.43;;
2001;SDS011;1003;48.002;7.788;2023-06-26T05:13:10;6.10;;;5.00;;
2001;SDS011;1003;48.002;7.788;2023-06-26T05:15:40;5.80;;;4.60;;
2001;SDS011;1003;48.002;7.788;2023-06-26T05:18:08;7.77;;;4.67;;
2001;SDS011;1003;48.002;7.788;2023-06-26T05:20:35;7.30;;;4.70;;
2001;SDS011;1003;48.002;7.788;2023-06-26T05:23:03;8.63;;;5.40;;
2001;SDS011;1003;48.002;7.788;2023-06-26T05:25:32;9.27;;;5.30;;
2001;SDS011;1003;48.002;7.788;2023-06-26T05:28:00;7.03;;;5.10;;
2001;SDS011;1003;48.002;7.788;2023-06-26T05:30:30;5.27;;;4.50;;
2001;SDS011;1003;48.002;7.788;2023-06-26T05:32:59;7.27;;;5.17;;
2001;SDS011;1003;48.002;7.788;2023-06-26T05:35:28;6.83;;;4.80;;
2001;SDS011;1003;48.002;7.788;2023-06-26T05:37:56;5.43;;;4.67;;
2001;SDS011;1003;48.002;7.788;2023-06-26T05:40:24;6.23;;;5.00;;
2001;SDS011;1003;48.002;7.788;2023-06-26T05:42:53;6.77;;;5.23;;
2001;SDS011;1003;48.002;7.788;2023-06-26T05:45:21;6.50;;;5.03;;
2001;SDS011;1003;48.002;7.788;2023-06-26T05:47:48;5.57;;;4.70;;
2001;SDS011;1003;48.002;7.788;2023-06-26T05:50:16;6.70;;;5.00;;
2001;SDS011;1003;48.002;7.788;2023-06-26T05:52:45;6.73;;;4.80;;
2001;SDS011;1003;48.002;7.788;2023-06-26T05:55:13;5.70;;;4.77;;
2001;SDS011;1003;48.002;7.788;2023-06-26T05:57:41;4.97;;;4.47;;
2001;SDS011;1003;48.002;7.788;2023-06-26T06:00:11;5.00;;;4.47;;
2001;SDS011;1003;48.002;7.788;2023-06-26T06:02:40;5.10;;;4.60;;
2001;SDS011;1003;48.002;7.788;2023-06-26T06:05:08;6.00;;;5.30;;
2001;SDS011;1003;48.002;7.788;2023-06-26T06:07:36;5.10;;;4.53;;
2001;SDS011;1003;48.002;7.788;2023-06-26T06:10:03;5.20;;;4.50;;
2001;SDS011;1003;48.002;7.788;2023-06-26T06:12:31;5.67;;;4.70;;
2001;SDS011;1003;48.002;7.788;2023-06-26T06:14:58;4.87;;;4.37;;
2001;SDS011;1003;48.002;7.788;2023-06-26T06:17:27;5.93;;;4.67;;
2001;SDS011;1003;48.002;7.788;2023-06-26T06:19:54;5.37;;;4.33;;
2001;SDS011;1003;48.002;7.788;2023-06-26T06:22:21;5.32;;;4.82;;
2001;SDS011;1003;48.002;7.788;2023-06-26T06:24:48;7.27;;;4.60;;
2001;SDS011;1003;48.002;7.788;2023-06-26T06:27:16;5.68;;;4.72;;
2001;SDS011;1003;48.002;7.788;2023-06-26T06:29:44;6.00;;;4.90;;
2001;SDS011;1003;48.002;7.788;2023-06-26T06:32:11;7.43;;;5.05;;
2001;SDS011;1003;48.002;7.788;2023-06-26T06:34:39;5.60;;;4.88;;
2001;SDS011;1003;48.002;7.788;2023-06-26T06:37:06;5.72;;;5.05;;
2001;SDS011;1003;48.002;7.788;2023-06-26T06:39:33;5.43;;;4.72;;
2001;SDS011;1003;48.002;7.788;2023-06-26T06:42:00;5.47;;;4.70;;
2001;SDS011;1003;48.002;7.788;2023-06-26T06:44:27;6.40;;;4.50;;
2001;SDS011;1003;48.002;7.788;2023-06-26T06:46:55;5.00;;;4.35;;
2001;SDS011;1003;48.002;7.788;2023-06-26T06:49:22;5.32;;;4.68;;
2001;SDS011;1003;48.002;7.788;2023-06-26T06:51:51;5.88;;;4.93;;
2001;SDS011;1003;48.002;7.788;2023-06-26T06:54:18;5.22;;;4.60;;
2001;SDS011;1003;48.002;7.788;2023-06-26T06:56:45;5.75;;;4.50;;
2001;SDS011;1003;48.002;7.788;2023-06-26T06:59:12;5.88;;;4.63;;
2001;SDS011;1003;48.002;7.788;2023-06-26T07:01:39;5.75;;;5.25;;
2001;SDS011;1003;48.002;7.788;2023-06-26T07:04:07;5.70;;;4.70;;
2001;SDS011;1003;48.002;7.788;2023-06-26T07:06:34;6.13;;;4.75;;
2001;SDS011;1003;48.002;7.788;2023-06-26T07:09:03;5.38;;;4.55;;
2001;SDS011;1003;48.002;7.788;2023-06-26T07:11:31;5.60;;;4.22;;
2001;SDS011;1003;48.002;7.788;2023-06-26T07:13:58;4.80;;;4.30;;
2001;SDS011;1003;48.002;7.788;2023-06-26T07:16:25;5.10;;;4.60;;
2001;SDS011;1003;48.002;7.788;2023-06-26T07:18:52;5.68;;;4.60;;
2001;SDS011;1003;48.002;7.788;2023-06-26T07:21:19;5.20;;;4.65;;
2001;SDS011;1003;48.002;7.788;2023-06-26T07:23:47;5.80;;;4.80;;
2001;SDS011;1003;48.002;7.788;2023-06-26T07:26:16;6.55;;;4.82;;
2001;SDS011;1003;48.002;7.788;2023-06-26T07:28:43;6.20;;;4.60;;
2001;SDS011;1003;48.002;7.788;2023-06-26T07:31:10;5.90;;;4.68;;
2001;SDS011;1003;48.002;7.788;2023-06-26T07:33:37;5.47;;;4.95;;
2001;SDS011;1003;48.002;7.788;2023-06-26T07:36:05;6.30;;;4.85;;
2001;SDS011;1003;48.002;7.788;2023-06-26T07:38:32;6.07;;;5.03;;
2001;SDS011;1003;48.002;7.788;2023-06-26T07:40:59;5.25;;;4.75;;
2001;SDS011;1003;48.002;7.788;2023-06-26T07:43:27;5.25;;;4.40;;
2001;SDS011;1003;48.002;7.788;2023-06-26T07:45:54;5.78;;;5.18;;
2001;SDS011;1003;48.002;7.788;2023-06-26T07:48:23;5.50;;;4.90;;
2001;SDS011;1003;48.002;7.788;2023-06-26T07:50:50;5.20;;;4.70;;
2001;SDS011;1003;48.002;7.788;2023-06-26T07:53:18;6.47;;;4.90;;
2001;SDS011;1003;48.002;7.788;2023-06-26T07:55:45;7.35;;;5.10;;
2001;SDS011;1003;48.002;7.788;2023-06-26T07:58:13;6.78;;;5.05;;
2001;SDS011;1003;48.002;7.788;2023-06-26T08:00:41;6.68;;;5.03;;
2001;SDS011;1003;48.002;7.788;2023-06-26T08:03:08;5.30;;;4.80;;
2001;SDS011;1003;48.002;7.788;2023-06-26T08:05:35;5.82;;;5.30;;
2001;SDS011;1003;48.002;7.788;2023-06-26T08:08:02;5.78;;;4.78;;
2001;SDS011;1003;48.002;7.788;2023-06-26T08:10:29;6.00;;;5.00;;
2001;SDS011;1003;48.002;7.788;2023-06-26T08:12:56;5.43;;;4.88;;
2001;SDS011;1003;48.002;7.788;2023-06-26T08:15:23;5.55;;;5.03;;
2001;SDS011;1003;48.002;7.788;2023-06-26T08:17:52;5.45;;;4.88;;
2001;SDS011;1003;48.002;7.788;2023-06-26T08:20:19;8.32;;;5.40;;
2001;SDS011;1003;48.002;7.788;2023-06-26T08:22:47;6.05;;;5.43;;
2001;SDS011;1003;48.002;7.788;2023-06-26T08:25:16;6.75;;;5.25;;
2001;SDS011;1003;48.002;7.788;2023-06-26T08:27:43;6.13;;;5.07;;
2001;SDS011;1003;48.002;7.788;2023-06-26T08:30:10;5.65;;;5.05;;
2001;SDS011;1003;48.002;7.788;2023-06-26T08:32:38;6.63;;;5.10;;
2001;SDS011;1003;48.002;7.788;2023-06-26T08:35:07;6.55;;;5.07;;
2001;SDS011;1003;48.002;7.788;2023-06-26T08:37:35;5.53;;;5.03;;
2001;SDS011;1003;48.002;7.788;2023-06-26T08:40:02;5.93;;;5.15;;
2001;SDS011;1003;48.002;7.788;2023-06-26T08:42:31;6.57;;;5.38;;
2001;SDS011;1003;48.002;7.788;2023-06-26T08:44:58;7.18;;;4.95;;
2001;SDS011;1003;48.002;7.788;2023-06-26T08:47:26;5.95;;;5.35;;
2001;SDS011;1003;48.002;7.788;2023-06-26T08:49:55;7.75;;;5.40;;
2001;SDS011;1003;48.002;7.788;2023-06-26T08:52:35;6.60;;;5.55;;
2001;SDS011;1003;48.002;7.788;2023-06-26T08:55:10;6.05;;;5.38;;
2001;SDS011;1003;48.002;7.788;2023-06-26T08:57:41;6.40;;;5.50;;
2001;SDS011;1003;48.002;7.788;2023-06-26T09:00:09;6.75;;;5.55;;
2001;SDS011;1003;48.002;7.788;2023-06-26T09:02:39;6.07;;;5.35;;
2001;SDS011;1003;48.002;7.788;2023-06-26T09:05:07;5.50;;;4.97;;
2001;SDS011;1003;48.002;7.788;2023-06-26T09:07:36;6.05;;;5.45;;
2001;SDS011;1003;48.002;7.788;2023-06-26T09:10:03;6.15;;;5.35;;
2001;SDS011;1003;48.002;7.788;2023-06-26T09:12:31;5.88;;;5.28;;
2001;SDS011;1003;48.002;7.788;2023-06-26T09:14:59;6.20;;;5.53;;
2001;SDS011;1003;48.002;7.788;2023-06-26T09:17:29;7.75;;;5.57;;
2001;SDS011;1003;48.002;7.788;2023-06-26T09:19:57;6.97;;;5.28;;
2001;SDS011;1003;48.002;7.788;2023-06-26T09:22:25;7.55;;;5.47;;
2001;SDS011;1003;48.002;7.788;2023-06-26T09:24:54;7.97;;;5.45;;
2001;SDS011;1003;48.002;7.788;2023-06-26T09:27:21;6.20;;;5.22;;
2001;SDS011;1003;48.002;7.788;2023-06-26T09:29:48;6.13;;;5.10;;
2001;SDS011;1003;48.002;7.788;2023-06-26T09:32:17;6.15;;;5.18;;
2001;SDS011;1003;48.002;7.788;2023-06-26T09:34:44;7.95;;;5.50;;
2001;SDS011;1003;48.002;7.788;2023-06-26T09:37:11;5.82;;;5.22;;
2001;SDS011;1003;48.002;7.788;2023-06-26T09:39:39;8.30;;;5.78;;
2001;SDS011;1003;48.002;7.788;2023-06-26T09:42:07;6.50;;;5.90;;
2001;SDS011;1003;48.002;7.788;2023-06-26T09:44:34;6.93;;;5.53;;
2001;SDS011;1003;48.002;7.788;2023-06-26T09:47:02;6.03;;;5.32;;
2001;SDS011;1003;48.002;7.788;2023-06-26T09:49:30;6.00;;;5.40;;
2001;SDS011;1003;48.002;7.788;2023-06-26T09:51:59;6.18;;;5.57;;
2001;SDS011;1003;48.002;7.788;2023-06-26T09:54:28;6.47;;;5.30;;
2001;SDS011;1003;48.002;7.788;2023-06-26T09:57:07;5.82;;;5.22;;
2001;SDS011;1003;48.002;7.788;2023-06-26T09:59:35;5.78;;;5.18;;
2001;SDS011;1003;48.002;7.788;2023-06-26T10:02:03;6.95;;;5.65;;
2001;SDS011;1003;48.002;7.788;2023-06-26T10:04:30;6.50;;;5.47;;
2001;SDS011;1003;48.002;7.788;2023-06-26T10:06:58;5.90;;;5.40;;
2001;SDS011;1003;48.002;7.788;2023-06-26T10:09:28;5.82;;;5.32;;
2001;SDS011;1003;48.002;7.788;2023-06-26T10:11:57;6.72;;;5.45;;
2001;SDS011;1003;48.002;7.788;2023-06-26T10:14:33;6.18;;;5.40;;
2001;SDS011;1003;48.002;7.788;2023-06-26T10:17:06;6.90;;;5.53;;
2001;SDS011;1003;48.002;7.788;2023-06-26T10:19:39;6.03;;;5.43;;
2001;SDS011;1003;48.002;7.788;2023-06-26T10:22:10;9.35;;;5.40;;
2001;SDS011;1003;48.002;7.788;2023-06-26T10:24:42;6.40;;;5.75;;
2001;SDS011;1003;48.002;7.788;2023-06-26T10:27:14;6.15;;;5.55;;
2001;SDS011;1003;48.002;7.788;2023-06-26T10:29:46;5.68;;;5.15;;
2001;SDS011;1003;48.002;7.788;2023-06-26T10:32:22;6.82;;;5.50;;
2001;SDS011;1003;48.002;7.788;2023-06-26T10:34:52;7.28;;;5.72;;
2001;SDS011;1003;48.002;7.788;2023-06-26T10:37:31;6.82;;;5.88;;
2001;SDS011;1003;48.002;7.788;2023-06-26T10:40:09;6.95;;;5.47;;
2001;SDS011;1003;48.002;7.788;2023-06-26T10:42:37;8.02;;;5.78;;
2001;SDS011;1003;48.002;7.788;2023-06-26T10:45:11;6.22;;;5.40;;
2001;SDS011;1003;48.002;7.788;2023-06-26T10:47:41;7.63;;;5.65;;
2001;SDS011;1003;48.002;7.788;2023-06-26T10:50:19;6.20;;;5.60;;
2001;SDS011;1003;48.002;7.788;2023-06-26T10:53:08;6.25;;;5.65;;
2001;SDS011;1003;48.002;7.788;2023-06-26T10:55:40;7.35;;;5.80;;
2001;SDS011;1003;48.002;7.788;2023-06-26T10:58:28;8.70;;;6.00;;
2001;SDS011;1003;48.002;7.788;2023-06-26T11:01:20;6.07;;;5.47;;
2001;SDS011;1003;48.002;7.788;2023-06-26T11:03:49;6.53;;;5.88;;
2001;SDS011;1003;48.002;7.788;2023-06-26T11:06:30;5.88;;;5.28;;
2001;SDS011;1003;48.002;7.788;2023-06-26T11:09:00;7.65;;;6.03;;
2001;SDS011;1003;48.002;7.788;2023-06-26T11:14:27;8.25;;;6.20;;
2001;SDS011;1003;48.002;7.788;2023-06-26T11:16:58;7.23;;;6.53;;
2001;SDS011;1003;48.002;7.788;2023-06-26T11:19:29;7.57;;;6.07;;
2001;SDS011;1003;48.002;7.788;2023-06-26T11:22:01;7.17;;;5.90;;
2001;SDS011;1003;48.002;7.788;2023-06-26T11:24:30;7.75;;;6.30;;
2001;SDS011;1003;48.002;7.788;2023-06-26T11:27:02;7.20;;;6.28;;
2001;SDS011;1003;48.002;7.788;2023-06-26T11:29:31;8.18;;;6.40;;
2001;SDS011;1003;48.002;7.788;2023-06-26T11:32:01;7.03;;;6.32;;
2001;SDS011;1003;48.002;7.788;2023-06-26T11:34:32;8.93;;;6.57;;
2001;SDS011;1003;48.002;7.788;2023-06-26T11:37:00;7.20;;;6.22;;
2001;SDS011;1003;48.002;7.788;2023-06-26T11:39:30;6.75;;;6.00;;
2001;SDS011;1003;48.002;7.788;2023-06-26T11:41:58;7.50;;;5.97;;
2001;SDS011;1003;48.002;7.788;2023-06-26T11:44:28;6.78;;;6.05;;
2001;SDS011;1003;48.002;7.788;2023-06-26T11:46:57;7.80;;;6.43;;
2001;SDS011;1003;48.002;7.788;2023-06-26T11:49:25;6.70;;;6.10;;
2001;SDS011;1003;48.002;7.788;2023-06-26T11:51:55;7.40;;;5.90;;
2001;SDS011;1003;48.002;7.788;2023-06-26T11:54:25;7.07;;;6.40;;
2001;SDS011;1003;48.002;7.788;2023-06-26T11:56:54;6.72;;;5.97;;
2001;SDS011;1003;48.002;7.788;2023-06-26T11:59:23;6.30;;;5.70;;
2001;SDS011;1003;48.002;7.788;2023-06-26T12:01:57;7.10;;;5.63;;
2001;SDS011;1003;48.002;7.788;2023-06-26T12:04:27;5.53;;;4.90;;
2001;SDS011;1003;48.002;7.788;2023-06-26T12:06:55;5.13;;;4.63;;
2001;SDS011;1003;48.002;7.788;2023-06-26T12:09:23;5.60;;;4.63;;
2001;SDS011;1003;48.002;7.788;2023-06-26T12:11:52;5.97;;;4.80;;
2001;SDS011;1003;48.002;7.788;2023-06-26T12:14:21;4.90;;;4.40;;
2001;SDS011;1003;48.002;7.788;2023-06-26T12:16:53;4.90;;;4.40;;
2001;SDS011;1003;48.002;7.788;2023-06-26T12:19:23;7.80;;;5.30;;
2001;SDS011;1003;48.002;7.788;2023-06-26T12:21:53;5.97;;;5.10;;
2001;SDS011;1003;48.002;7.788;2023-06-26T12:24:22;6.67;;;5.00;;
2001;SDS011;1003;48.002;7.788;2023-06-26T12:26:51;5.73;;;4.73;;
2001;SDS011;1003;48.002;7.788;2023-06-26T12:29:21;5.50;;;4.70;;
2001;SDS011;1003;48.002;7.788;2023-06-26T12:31:59;6.10;;;4.70;;
2001;SDS011;1003;48.002;7.788;2023-06-26T12:34:27;5.33;;;4.40;;
2001;SDS011;1003;48.002;7.788;2023-06-26T12:37:01;5.90;;;4.50;;
2001;SDS011;1003;48.002;7.788;2023-06-26T12:39:29;5.30;;;4.70;;
2001;SDS011;1003;48.002;7.788;2023-06-26T12:42:13;5.37;;;4.53;;
2001;SDS011;1003;48.002;7.788;2023-06-26T12:44:41;6.00;;;4.70;;
2001;SDS011;1003;48.002;7.788;2023-06-26T12:47:08;6.63;;;4.63;;
2001;SDS011;1003;48.002;7.788;2023-06-26T12:49:40;5.87;;;4.27;;
2001;SDS011;1003;48.002;7.788;2023-06-26T12:52:11;6.33;;;4.60;;
2001;SDS011;1003;48.002;7.788;2023-06-26T12:54:40;5.50;;;4.23;;
2001;SDS011;1003;48.002;7.788;2023-06-26T12:57:09;6.20;;;4.27;;
2001;SDS011;1003;48.002;7.788;2023-06-26T12:59:39;5.27;;;4.33;;
2001;SDS011;1003;48.002;7.788;2023-06-26T13:02:06;5.60;;;3.97;;
2001;SDS011;1003;48.002;7.788;2023-06-26T13:04:36;4.33;;;3.77;;
2001;SDS011;1003;48.002;7.788;2023-06-26T13:07:05;5.07;;;4.47;;
2001;SDS011;1003;48.002;7.788;2023-06-26T13:09:34;6.30;;;4.20;;
2001;SDS011;1003;48.002;7.788;2023-06-26T13:12:01;4.30;;;3.90;;
2001;SDS011;1003;48.002;7.788;2023-06-26T13:14:30;5.60;;;3.93;;
2001;SDS011;1003;48.002;7.788;2023-06-26T13:16:57;4.40;;;3.60;;
2001;SDS011;1003;48.002;7.788;2023-06-26T13:19:24;4.40;;;4.00;;
2001;SDS011;1003;48.002;7.788;2023-06-26T13:21:51;4.87;;;3.90;;
2001;SDS011;1003;48.002;7.788;2023-06-26T13:24:18;4.90;;;3.93;;
2001;SDS011;1003;48.002;7.788;2023-06-26T13:26:47;4.53;;;3.80;;
2001;SDS011;1003;48.002;7.788;2023-06-26T13:29:14;4.37;;;3.80;;
2001;SDS011;1003;48.002;7.788;2023-06-26T13:31:41;4.77;;;4.27;;
2001;SDS011;1003;48.002;7.788;2023-06-26T13:34:08;6.70;;;4.67;;
2001;SDS011;1003;48.002;7.788;2023-06-26T13:36:46;5.97;;;5.00;;
2001;SDS011;1003;48.002;7.788;2023-06-26T13:39:13;5.50;;;4.70;;
2001;SDS011;1003;48.002;7.788;2023-06-26T13:41:40;5.33;;;4.70;;
2001;SDS011;1003;48.002;7.788;2023-06-26T13:44:08;6.07;;;4.97;;
2001;SDS011;1003;48.002;7.788;2023-06-26T13:46:35;5.93;;;4.70;;
2001;SDS011;1003;48.002;7.788;2023-06-26T13:49:02;6.07;;;4.80;;
2001;SDS011;1003;48.002;7.788;2023-06-26T13:51:29;5.13;;;4.10;;
2001;SDS011;1003;48.002;7.788;2023-06-26T13:53:56;4.18;;;3.75;;
2001;SDS011;1003;48.002;7.788;2023-06-26T13:56:25;5.28;;;3.90;;
2001;SDS011;1003;48.002;7.788;2023-06-26T13:58:53;4.50;;;4.10;;
2001;SDS011;1003;48.002;7.788;2023-06-26T14:01:21;5.35;;;4.32;;
2001;SDS011;1003;48.002;7.788;2023-06-26T14:03:49;4.53;;;3.85;;
2001;SDS011;1003;48.002;7.788;2023-06-26T14:06:16;5.03;;;4.40;;
2001;SDS011;1003;48.002;7.788;2023-06-26T14:08:43;4.82;;;3.83;;
2001;SDS011;1003;48.002;7.788;2023-06-26T14:11:09;5.15;;;4.10;;
2001;SDS011;1003;48.002;7.788;2023-06-26T14:13:36;5.30;;;4.10;;
2001;SDS011;1003;48.002;7.788;2023-06-26T14:16:04;4.05;;;3.65;;
2001;SDS011;1003;48.002;7.788;2023-06-26T14:18:32;3.90;;;3.50;;
2001;SDS011;1003;48.002;7.788;2023-06-26T14:21:00;4.57;;;3.35;;
2001;SDS011;1003;48.002;7.788;2023-06-26T14:23:29;3.70;;;3.25;;
2001;SDS011;1003;48.002;7.788;2023-06-26T14:25:56;4.28;;;3.13;;
2001;SDS011;1003;48.002;7.788;2023-06-26T14:28:23;3.10;;;2.80;;
2001;SDS011;1003;48.002;7.788;2023-06-26T14:30:50;4.57;;;2.88;;
2001;SDS011;1003;48.002;7.788;2023-06-26T14:33:17;3.58;;;2.80;;
2001;SDS011;1003;48.002;7.788;2023-06-26T14:35:45;3.22;;;2.90;;
2001;SDS011;1003;48.002;7.788;2023-06-26T14:38:12;2.80;;;2.60;;
2001;SDS011;1003;48.002;7.788;2023-06-26T14:40:39;3.20;;;2.63;;
2001;SDS011;1003;48.002;7.788;2023-06-26T14:43:06;3.90;;;3.33;;
2001;SDS011;1003;48.002;7.788;2023-06-26T14:45:33;3.37;;;3.00;;
2001;SDS011;1003;48.002;7.788;2023-06-26T14:48:01;3.20;;;2.90;;
2001;SDS011;1003;48.002;7.788;2023-06-26T14:50:28;3.60;;;3.17;;
2001;SDS011;1003;48.002;7.788;2023-06-26T14:52:56;3.50;;;3.07;;
2001;SDS011;1003;48.002;7.788;2023-06-26T14:55:23;5.40;;;3.33;;
2001;SDS011;1003;48.002;7.788;2023-06-26T14:57:50;4.97;;;3.47;;
2001;SDS011;1003;48.002;7.788;2023-06-26T15:00:17;4.27;;;3.37;;
2001;SDS011;1003;48.002;7.788;2023-06-26T15:02:51;3.57;;;3.10;;
2001;SDS011;1003;48.002;7.788;2023-06-26T15:05:23;3.70;;;3.10;;
2001;SDS011;1003;48.002;7.788;2023-06-26T15:07:51;5.23;;;3.47;;
2001;SDS011;1003;48.002;7.788;2023-06-26T15:10:19;3.57;;;3.10;;
2001;SDS011;1003;48.002;7.788;2023-06-26T15:12:46;3.50;;;3.17;;
2001;SDS011;1003;48.002;7.788;2023-06-26T15:15:13;3.97;;;3.30;;
2001;SDS011;1003;48.002;7.788;2023-06-26T15:17:42;3.93;;;3.13;;
2001;SDS011;1003;48.002;7.788;2023-06-26T15:20:09;4.10;;;3.10;;
2001;SDS011;1003;48.002;7.788;2023-06-26T15:22:37;3.50;;;3.20;;
2001;SDS011;1003;48.002;7.788;2023-06-26T15:25:04;4.30;;;3.30;;
2001;SDS011;1003;48.002;7.788;2023-06-26T15:27:34;3.50;;;3.13;;